Share

Pula, Croatia

Astronomical observatory Pula (ICROATIA7) Elev 92 ft | 44.87 °N, 13.85 °E | Change Station

Current weather conditions updated 2 minutes ago

Partly Cloudy
Partly Cloudy
56.5 °F
Feels Like 56.5 °F
N
0.7
Wind Variable Wind from East
Gusts 6.9 mph
Sunrise 6:10 AM
Sunset 7:56 PM
Moon Waning Gibbous

Today is forecast to be Cooler than yesterday. Light rain.

Pressure 29.77 in
Visibility 6.2 miles
Clouds Few 2500 ft
Dew Point 54 °F
Humidity 90%
Rainfall 0.00 in
Snow Depth Not available.
UV 0 out of 16
Pollen Not available.
Air Quality Not available.
Flu Activity Not available.
METAR LDPL 202230Z 09005KT 9999 FEW025 12/11 Q1008

More Conditions Fewer Conditions

Pressure 29.77 in
Visibility 6.2 miles
Clouds Few 2500 ft
Dew Point 54 °F
Humidity 90%
Rainfall 0.00 in
Snow Depth Not available.
UV 0 out of 16
Pollen Not available.
Air Quality Not available.
Flu Activity Not available.
METAR LDPL 202230Z 09005KT 9999 FEW025 12/11 Q1008

More Conditions Fewer Conditions

10-Day Weather Forecast

Almanac

Astronomy

Apr. 21, 2014 Rise Set
Actual Time 6:10 AM CEST 7:56 PM CEST
Civil Twilight 5:38 AM CEST 8:28 PM CEST
Nautical Twilight 5:00 AM CEST 9:06 PM CEST
Astronomical Twilight 4:19 AM CEST 9:47 PM CEST
Moon 1:17 AM CEST (4/21) 11:13 AM CEST (4/21)
Length of Visible Light 14h 49m
Length of Day
13h 46m
Tomorrow will be 2m 54s longer.
Waning Gibbous, 66% of the Moon is Illuminated
Apr 20
Waning Gibbous
Apr 22
Last Quarter
Apr 29
New
May 6
First Quarter
May 14
Full

Yesterday's Extremes

Country Highs Country Lows

Community

  • spring skiing mount Baker WA
    spring skiing mount Baker WA
  • Morning Sun
    Morning Sun
  • after rain
    after rain
  • Columbine
    Columbine
  • Easter Sunrise
    Easter Sunrise

WunderPhotos

Upload Photos

1,703,423 photos uploaded!

WunderBlogs® & News

Nearby

Snow Depth

Not available.

Coastal Water Temperatures

Place Temperature
No Stations Reporting

Earthquake Activity

City Distance Mag. Time & Date
No recent earthquake activity has been reported nearby.
Minimum magnitude displayed is 2.5.

Nearby Weather Stations

Station Location Temp. Windchill Dew Point Humidity Wind Precip. Elev Updated Type
Astronomical observatory Pula, Pula - Istra 56.5 °F - 54 °F 90% East  at  0.7 mph 0.00 in / hr 92 ft 12:43 AM CEST Normal
Premantura, Premantura 56.8 °F - 54 °F 91% ENE  at  5.8 mph 0.00 in / hr 120 ft 12:42 AM CEST Normal
Zminj - Matkici, Zminj 49.1 °F 49 °F 47 °F 92% ENE  at  0.0 mph 0.00 in / hr 1207 ft 12:41 AM CEST Normal
Zminj 50.5 °F - 47 °F 87% ESE  at  10.4 mph 0.00 in / hr 1198 ft 12:45 AM CEST Rapid Fire
Cres ,Test, Cres 57.6 °F - 51 °F 78% SW  at  0.0 mph 0.00 in / hr -10 ft 11:00 PM CEST Normal
Cres, Island Cres 55.2 °F - 50 °F 81% SE  at  0.0 mph 0.00 in / hr 0 ft 12:41 AM CEST Normal

Show More Stations Show Fewer Stations

What do you think?

We're not finished. Please let us know what you like, what you don't like, and what you are still missing.